Time;durP1;ratioP1;P1;durP2;ratioP2;P2;SDS_P1;SDS_P2;PMS_P1;PMS_P2;Temp;Humidity;BMP_temperature;BMP_pressure;BME280_temperature;BME280_humidity;BME280_pressure;Samples;Min_cycle;Max_cycle;Signal;HPM_P1;HPM_P2
2022/07/21 00:00:29;;;;;;;2.53;2.10;;;;;;;18.73;100.00;62798.13;5070870;28;20287;-74
2022/07/21 00:02:57;;;;;;;5.33;2.50;;;;;;;18.04;100.00;62739.06;5080586;28;20282;-76
2022/07/21 00:05:25;;;;;;;3.87;2.50;;;;;;;18.91;100.00;62822.72;5073777;28;20632;-75
2022/07/21 00:07:53;;;;;;;3.57;2.30;;;;;;;18.95;100.00;62832.19;5080275;28;20257;-75
2022/07/21 00:10:26;;;;;;;2.90;2.50;;;;;;;18.84;100.00;62817.19;5073094;28;20228;-75
2022/07/21 00:12:57;;;;;;;3.70;2.60;;;;;;;18.33;100.00;62760.06;5090534;28;20280;-76
2022/07/21 00:15:26;;;;;;;2.80;2.53;;;;;;;18.74;100.00;62804.34;5076281;28;20283;-76
2022/07/21 00:17:55;;;;;;;3.87;2.30;;;;;;;18.70;100.00;62804.63;5090633;28;20259;-76
2022/07/21 00:20:27;;;;;;;4.00;2.63;;;;;;;18.71;100.00;62803.69;5073412;28;20201;-76
2022/07/21 00:22:56;;;;;;;2.57;2.37;;;;;;;18.83;100.00;62816.09;5083036;28;20299;-76
2022/07/21 00:25:25;;;;;;;4.37;2.57;;;;;;;18.71;100.00;62801.13;5065959;28;20226;-77
2022/07/21 00:27:52;;;;;;;4.13;2.50;;;;;;;17.82;100.00;62710.19;5077784;28;20274;-75
2022/07/21 00:30:23;;;;;;;3.77;2.80;;;;;;;18.64;100.00;62795.59;5083011;28;20227;-76
2022/07/21 00:32:51;;;;;;;3.07;2.40;;;;;;;18.59;100.00;62792.78;5074845;28;20282;-75
2022/07/21 00:38:03;;;;;;;11.13;2.67;;;;;;;17.45;100.00;62666.19;5075410;28;20210;-76
2022/07/21 00:40:32;;;;;;;3.23;2.40;;;;;;;18.12;100.00;62742.56;5076457;28;20283;-74
2022/07/21 00:43:00;;;;;;;4.43;2.57;;;;;;;18.52;100.00;62785.75;5074127;28;20756;-78
2022/07/21 00:45:29;;;;;;;4.03;2.63;;;;;;;18.47;100.00;62780.38;5074317;28;20219;-75
2022/07/21 00:47:56;;;;;;;2.97;2.67;;;;;;;18.37;100.00;62769.56;5073865;28;20307;-76
2022/07/21 00:50:25;;;;;;;4.17;2.63;;;;;;;18.15;100.00;62745.81;5075858;28;20741;-75
2022/07/21 00:52:53;;;;;;;5.53;2.60;;;;;;;18.26;100.00;62758.22;5093345;28;20632;-76
2022/07/21 00:55:24;;;;;;;3.07;2.73;;;;;;;18.25;100.00;62756.59;5092650;28;20275;-75
2022/07/21 00:57:55;;;;;;;4.70;3.00;;;;;;;18.20;100.00;62746.03;5093004;28;20196;-76
2022/07/21 01:00:27;;;;;;;4.40;2.77;;;;;;;18.18;100.00;62749.56;5088518;28;20287;-76
2022/07/21 01:02:56;;;;;;;7.33;2.93;;;;;;;17.18;100.00;62642.22;5085035;28;20195;-77
2022/07/21 01:05:24;;;;;;;6.87;2.67;;;;;;;17.35;100.00;62660.53;5092671;28;20655;-76
2022/07/21 01:07:54;;;;;;;7.10;3.07;;;;;;;17.85;100.00;62710.84;5092971;28;20203;-75
2022/07/21 01:10:25;;;;;;;3.00;2.80;;;;;;;17.93;100.00;62724.63;5092564;28;20293;-77
2022/07/21 01:13:12;;;;;;;4.97;2.67;;;;;;;17.82;100.00;62705.03;5092724;28;20257;-76
2022/07/21 01:15:40;;;;;;;4.63;2.70;;;;;;;17.71;100.00;62696.81;5073324;28;20192;-75
2022/07/21 01:18:10;;;;;;;10.50;3.70;;;;;;;17.69;100.00;62694.66;5092338;28;20691;-75
2022/07/21 01:20:42;;;;;;;9.33;3.53;;;;;;;17.20;100.00;62646.94;5092808;28;20409;-74
2022/07/21 01:23:13;;;;;;;9.27;3.63;;;;;;;17.31;100.00;62651.06;5091552;28;20241;-76
2022/07/21 01:25:42;;;;;;;7.33;3.63;;;;;;;17.66;100.00;62694.00;5092167;28;20622;-75
2022/07/21 01:28:17;;;;;;;3.77;3.17;;;;;;;17.68;100.00;62695.63;5091510;28;20675;-75
2022/07/21 01:30:45;;;;;;;3.73;3.07;;;;;;;17.79;100.00;62712.13;5090861;27;20753;-76
2022/07/21 01:33:13;;;;;;;4.70;2.80;;;;;;;17.46;100.00;62666.72;5091000;28;20290;-76
2022/07/21 01:35:41;;;;;;;4.17;3.33;;;;;;;17.87;100.00;62715.59;5091621;28;20195;-77
2022/07/21 01:41:28;;;;;;;5.47;3.00;;;;;;;17.74;100.00;62699.53;5090940;28;20218;-77
2022/07/21 01:43:45;;;;;;;5.03;2.70;;;;;;;17.67;100.00;62694.53;5092172;28;20260;-76
2022/07/21 01:46:15;;;;;;;5.37;2.70;;;;;;;17.38;100.00;62663.78;5084260;28;20284;-78
2022/07/21 01:48:45;;;;;;;3.70;3.00;;;;;;;17.10;100.00;62633.59;5072494;28;20234;-76
2022/07/21 01:51:14;;;;;;;3.13;2.73;;;;;;;17.16;100.00;62639.53;5072575;28;20287;-76
2022/07/21 01:53:44;;;;;;;4.33;2.80;;;;;;;17.93;100.00;62727.75;5086327;28;20207;-76
2022/07/21 01:56:14;;;;;;;3.87;2.67;;;;;;;18.08;100.00;62733.09;5076103;28;20298;-76
2022/07/21 01:58:44;;;;;;;3.13;2.83;;;;;;;18.17;100.00;62747.97;5092619;28;20687;-76
2022/07/21 02:01:12;;;;;;;5.47;2.73;;;;;;;18.01;100.00;62725.53;5080298;28;20203;-76
2022/07/21 02:03:42;;;;;;;5.43;2.67;;;;;;;18.12;100.00;62737.94;5072333;28;20668;-75
2022/07/21 02:06:11;;;;;;;3.83;2.60;;;;;;;18.10;100.00;62735.25;5072176;28;20204;-76
2022/07/21 02:08:38;;;;;;;3.13;2.43;;;;;;;17.76;100.00;62698.56;5072673;28;20193;-76
2022/07/21 02:11:07;;;;;;;6.37;2.63;;;;;;;17.01;100.00;62623.88;5072131;28;20307;-76
2022/07/21 02:13:36;;;;;;;6.13;3.00;;;;;;;17.79;100.00;62706.97;5076970;28;20257;-75
2022/07/21 02:16:04;;;;;;;4.93;2.70;;;;;;;17.84;100.00;62707.72;5091969;28;20290;-74
2022/07/21 02:18:32;;;;;;;3.90;2.70;;;;;;;16.87;100.00;62603.66;5091262;28;20219;-75
2022/07/21 02:20:59;;;;;;;3.07;2.77;;;;;;;17.45;100.00;62671.31;5093383;28;20283;-76
2022/07/21 02:23:33;;;;;;;2.97;2.67;;;;;;;17.81;100.00;62709.13;5092976;28;20297;-75
2022/07/21 02:26:01;;;;;;;5.20;2.80;;;;;;;17.76;100.00;62703.72;5092035;28;20266;-75
2022/07/21 02:28:30;;;;;;;3.77;2.90;;;;;;;17.78;100.00;62705.88;5083464;28;20705;-75
2022/07/21 02:30:59;;;;;;;5.93;3.00;;;;;;;17.48;100.00;62672.00;5073612;28;20224;-75
2022/07/21 02:33:26;;;;;;;2.97;2.70;;;;;;;16.30;100.00;62552.50;5091528;28;20650;-77
2022/07/21 02:35:59;;;;;;;6.43;3.63;;;;;;;16.39;100.00;62560.16;5090703;28;20286;-76
2022/07/21 02:38:26;;;;;;;8.77;4.20;;;;;;;17.51;100.00;62677.81;5093511;28;20191;-75
2022/07/21 02:40:56;;;;;;;10.27;4.63;;;;;;;17.35;100.00;62660.00;5089048;28;20222;-77
2022/07/21 02:43:27;;;;;;;7.37;3.97;;;;;;;17.25;100.00;62649.75;5071384;28;20196;-76
2022/07/21 02:45:54;;;;;;;7.33;4.40;;;;;;;16.48;100.00;62572.41;5071350;28;20200;-76
2022/07/21 02:48:25;;;;;;;10.50;4.77;;;;;;;15.92;100.00;62504.38;5071511;28;20207;-75
2022/07/21 02:50:53;;;;;;;6.57;4.00;;;;;;;15.83;100.00;62502.94;5071750;28;20223;-77
2022/07/21 02:53:23;;;;;;;10.37;4.40;;;;;;;16.75;100.00;62595.84;5071760;28;20222;-76
2022/07/21 02:55:52;;;;;;;7.97;4.10;;;;;;;16.27;100.00;62544.66;5070835;28;20210;-77
2022/07/21 02:58:21;;;;;;;6.37;4.10;;;;;;;16.69;100.00;62584.25;5071701;28;20206;-75
2022/07/21 03:00:51;;;;;;;7.93;4.53;;;;;;;15.65;100.00;62481.00;5071397;28;20222;-74
2022/07/21 03:03:19;;;;;;;10.20;4.00;;;;;;;16.43;100.00;62561.91;5086266;28;20198;-75
2022/07/21 03:05:49;;;;;;;6.57;4.53;;;;;;;16.53;100.00;62569.56;5081272;28;20669;-76
2022/07/21 03:08:17;;;;;;;7.37;3.97;;;;;;;16.54;100.00;62573.22;5071707;28;20196;-75
2022/07/21 03:10:45;;;;;;;6.57;4.20;;;;;;;15.41;100.00;62446.88;5069834;28;20231;-75
2022/07/21 03:13:13;;;;;;;9.07;4.23;;;;;;;16.43;100.00;62561.91;5088943;28;20192;-75
2022/07/21 03:15:42;;;;;;;9.37;4.60;;;;;;;15.53;100.00;62468.06;5091063;28;20210;-75
2022/07/21 03:18:11;;;;;;;12.00;4.43;;;;;;;16.00;100.00;62510.97;5089470;28;20215;-76
2022/07/21 03:20:40;;;;;;;6.93;4.17;;;;;;;15.93;100.00;62508.56;5077873;28;20204;-75
2022/07/21 03:23:11;;;;;;;10.10;4.27;;;;;;;16.35;100.00;62553.28;5090290;28;20282;-76
2022/07/21 03:25:38;;;;;;;8.17;4.33;;;;;;;16.23;100.00;62537.22;5090098;28;20239;-75
2022/07/21 03:28:06;;;;;;;7.53;4.60;;;;;;;16.11;100.00;62524.31;5091338;28;20205;-76
2022/07/21 03:30:34;;;;;;;5.97;4.33;;;;;;;16.03;100.00;62519.34;5076036;28;20232;-74
2022/07/21 03:33:03;;;;;;;7.77;4.43;;;;;;;15.99;100.00;62515.03;5077642;28;20242;-77
2022/07/21 03:35:30;;;;;;;29.67;5.03;;;;;;;16.20;100.00;62536.59;5090404;28;20196;-77
2022/07/21 03:37:59;;;;;;;12.97;4.77;;;;;;;16.19;100.00;62532.91;5082384;28;20200;-76
2022/07/21 03:40:29;;;;;;;22.80;5.50;;;;;;;16.25;100.00;62541.97;5072638;28;20200;-75
2022/07/21 03:42:58;;;;;;;12.93;4.60;;;;;;;15.91;100.00;62501.28;5074965;28;20204;-75
2022/07/21 03:45:29;;;;;;;11.20;3.80;;;;;;;16.66;100.00;62583.59;5071956;28;20207;-76
2022/07/21 03:47:57;;;;;;;12.27;4.13;;;;;;;16.73;100.00;62589.09;5071326;28;20188;-76
2022/07/21 03:50:27;;;;;;;6.67;3.33;;;;;;;16.92;100.00;62614.19;5070810;28;20255;-75
2022/07/21 03:52:55;;;;;;;7.40;3.87;;;;;;;16.92;100.00;62605.94;5084138;28;20203;-75
2022/07/21 03:55:23;;;;;;;8.67;4.70;;;;;;;16.15;100.00;62529.16;5083381;28;20199;-76
2022/07/21 03:57:54;;;;;;;9.70;5.73;;;;;;;17.38;100.00;62666.38;5074891;28;20207;-76
2022/07/21 04:00:25;;;;;;;7.43;4.93;;;;;;;17.56;100.00;62683.22;5073298;28;20192;-78
2022/07/21 04:02:55;;;;;;;7.67;4.40;;;;;;;16.62;100.00;62579.81;5077459;28;20202;-75
2022/07/21 04:05:27;;;;;;;14.70;5.00;;;;;;;17.47;100.00;62673.47;5085233;28;20268;-76
2022/07/21 04:07:56;;;;;;;5.47;4.20;;;;;;;17.44;100.00;62667.69;5080040;28;20199;-76
2022/07/21 04:10:26;;;;;;;7.23;4.53;;;;;;;17.92;100.00;62715.81;5088199;28;20595;-76
2022/07/21 04:12:59;;;;;;;7.00;3.50;;;;;;;17.33;100.00;62660.97;5073939;28;20282;-76
2022/07/21 04:15:27;;;;;;;9.03;4.03;;;;;;;17.83;100.00;62711.28;5061619;28;20297;-75
2022/07/21 04:17:56;;;;;;;26.47;6.20;;;;;;;18.21;100.00;62750.22;5087790;28;20230;-76
2022/07/21 04:20:24;;;;;;;10.00;3.97;;;;;;;18.38;100.00;62766.00;5093867;28;20200;-77
2022/07/21 04:22:55;;;;;;;9.17;3.80;;;;;;;17.90;100.00;62718.81;5082831;28;20207;-74
2022/07/21 04:25:22;;;;;;;10.40;3.83;;;;;;;18.34;100.00;62755.97;5073223;28;20220;-76
2022/07/21 04:27:51;;;;;;;10.83;4.13;;;;;;;18.51;100.00;62779.53;5080721;28;20207;-77
2022/07/21 04:30:23;;;;;;;12.03;4.20;;;;;;;18.70;100.00;62805.19;5080566;28;20280;-76
2022/07/21 04:33:03;;;;;;;12.47;4.03;;;;;;;17.87;100.00;62716.13;5073022;28;20311;-75
2022/07/21 04:35:31;;;;;;;6.13;3.40;;;;;;;18.47;100.00;62785.53;5074244;28;20349;-77
2022/07/21 04:38:03;;;;;;;11.23;4.00;;;;;;;18.09;100.00;62739.31;5074474;28;20200;-74
2022/07/21 04:40:30;;;;;;;7.77;3.90;;;;;;;18.46;100.00;62776.69;5074235;28;20188;-76
2022/07/21 04:42:58;;;;;;;7.70;4.00;;;;;;;19.20;100.00;62856.59;5075411;28;20226;-75
2022/07/21 04:45:28;;;;;;;8.37;3.90;;;;;;;19.37;100.00;62874.47;5089926;28;20203;-76
2022/07/21 04:47:56;;;;;;;9.37;4.10;;;;;;;19.38;100.00;62876.06;5094061;28;20276;-76
2022/07/21 04:50:28;;;;;;;15.20;4.37;;;;;;;19.58;100.00;62897.13;5089474;28;20593;-77
2022/07/21 04:52:59;;;;;;;15.03;4.23;;;;;;;18.79;100.00;62817.50;5073975;28;20284;-75
2022/07/21 04:55:27;;;;;;;20.33;4.97;;;;;;;19.82;100.00;62922.56;5073957;28;20653;-77
2022/07/21 04:57:57;;;;;;;15.07;4.60;;;;;;;19.89;100.00;62932.69;5074296;28;20208;-76
2022/07/21 05:00:26;;;;;;;13.90;4.07;;;;;;;19.81;100.00;62921.47;5074271;28;20586;-77
2022/07/21 05:02:56;;;;;;;10.50;4.60;;;;;;;19.32;100.00;62877.31;5085035;28;20222;-77
2022/07/21 05:05:27;;;;;;;9.10;4.33;;;;;;;19.72;100.00;62914.34;5091061;28;20199;-75
2022/07/21 05:07:59;;;;;;;10.87;5.63;;;;;;;19.49;100.00;62890.00;5093043;28;20200;-76
2022/07/21 05:10:26;;;;;;;15.27;6.17;;;;;;;19.36;100.00;62876.50;5092300;28;20220;-75
2022/07/21 05:12:54;;;;;;;21.33;7.20;;;;;;;19.82;100.00;62925.13;5091562;28;20206;-76
2022/07/21 05:15:22;;;;;;;24.93;8.63;;;;;;;20.20;100.00;62961.59;5067847;28;20218;-76
2022/07/21 05:17:51;;;;;;;16.37;7.50;;;;;;;19.20;100.00;62856.06;5091718;28;20227;-77
2022/07/21 05:20:21;;;;;;;21.77;7.23;;;;;;;20.56;100.00;63004.63;5092425;28;20545;-75
2022/07/21 05:22:49;;;;;;;16.40;6.07;;;;;;;20.82;100.00;63032.75;5091246;28;20198;-76
2022/07/21 05:25:17;;;;;;;13.07;5.07;;;;;;;21.03;100.00;63050.84;5092183;28;20231;-77
2022/07/21 05:27:50;;;;;;;12.83;4.57;;;;;;;21.37;100.00;63091.75;5091499;28;20580;-75
2022/07/21 05:30:19;;;;;;;7.87;4.40;;;;;;;21.30;100.00;63079.00;5092544;28;20231;-76
2022/07/21 05:32:47;;;;;;;20.73;4.83;;;;;;;21.58;100.00;63115.03;5089708;28;20669;-75
2022/07/21 05:35:16;;;;;;;10.40;4.30;;;;;;;21.46;100.00;63096.31;5091964;28;20287;-75
2022/07/21 05:37:46;;;;;;;15.13;4.83;;;;;;;21.94;100.00;63148.28;5090074;28;20658;-77
2022/07/21 05:40:13;;;;;;;9.77;4.33;;;;;;;21.06;100.00;63058.19;5091630;28;20759;-75
2022/07/21 05:42:42;;;;;;;9.23;4.23;;;;;;;21.89;100.00;63142.91;5073978;28;20202;-74
2022/07/21 05:45:11;;;;;;;8.47;3.80;;;;;;;21.21;100.00;63071.84;5091583;28;20210;-76
2022/07/21 05:47:39;;;;;;;17.00;4.63;;;;;;;21.38;100.00;63092.84;5092257;28;20650;-75
2022/07/21 05:50:08;;;;;;;33.73;6.27;;;;;;;22.65;100.00;63224.69;5091693;28;20658;-76
2022/07/21 05:52:35;;;;;;;18.87;5.07;;;;;;;21.23;100.00;63074.00;5092368;28;20191;-75
2022/07/21 05:55:05;;;;;;;9.70;4.37;;;;;;;21.74;100.00;63134.41;5076915;28;20686;-75
2022/07/21 05:57:34;;;;;;;14.63;4.50;;;;;;;22.79;100.00;63241.91;5072287;28;20228;-76
2022/07/21 06:00:01;;;;;;;8.40;4.33;;;;;;;22.98;100.00;63259.91;5086889;28;20650;-76
2022/07/21 06:02:30;;;;;;;8.37;4.23;;;;;;;21.96;100.00;63150.47;5074558;28;20200;-77
2022/07/21 06:04:57;;;;;;;11.87;5.30;;;;;;;23.25;100.00;63289.72;5092375;28;20199;-76
2022/07/21 06:07:27;;;;;;;20.97;7.30;;;;;;;23.47;100.00;63315.66;5089161;28;20211;-77
2022/07/21 06:10:00;;;;;;;13.47;7.77;;;;;;;23.19;100.00;63282.66;5081806;28;20192;-75
2022/07/21 06:12:30;;;;;;;16.00;6.60;;;;;;;23.49;100.00;63315.22;5087309;28;20188;-77
2022/07/21 06:14:57;;;;;;;15.67;6.57;;;;;;;23.79;100.00;63347.75;5083395;28;20195;-75
2022/07/21 06:17:26;;;;;;;14.27;6.67;;;;;;;24.12;100.00;63383.59;5086846;28;20190;-76
2022/07/21 06:19:54;;;;;;;20.97;7.10;;;;;;;24.26;100.00;63398.22;5084735;28;20199;-76
2022/07/21 06:22:23;;;;;;;13.73;6.27;;;;;;;24.59;100.00;63433.50;5091367;28;20197;-75
2022/07/21 06:24:50;;;;;;;15.93;7.23;;;;;;;23.97;100.00;63372.50;5090417;28;20711;-75
2022/07/21 06:27:17;;;;;;;13.70;6.83;;;;;;;24.78;100.00;63454.16;5091226;28;20204;-77
2022/07/21 06:29:46;;;;;;;14.10;5.20;;;;;;;24.56;100.00;63430.25;5091172;28;20248;-76
2022/07/21 06:32:14;;;;;;;15.00;5.00;;;;;;;24.33;100.00;63401.16;5091681;28;20230;-76
2022/07/21 06:34:42;;;;;;;11.93;4.60;;;;;;;24.02;100.00;63372.16;5089802;28;20657;-76
2022/07/21 06:37:10;;;;;;;15.50;4.70;;;;;;;25.19;100.00;63498.13;5090976;28;20201;-75
2022/07/21 06:39:41;;;;;;;10.10;4.30;;;;;;;24.75;100.00;63450.91;5090941;28;20255;-75
2022/07/21 06:42:11;;;;;;;11.80;4.50;;;;;;;25.34;100.00;63514.94;5080446;28;20269;-75
2022/07/21 06:44:39;;;;;;;11.50;4.40;;;;;;;25.49;100.00;63531.28;5071469;28;20198;-75
2022/07/21 06:47:10;;;;;;;14.27;3.97;;;;;;;25.71;100.00;63554.63;5071931;28;20249;-76
2022/07/21 06:49:38;;;;;;;8.60;4.17;;;;;;;25.57;100.00;63539.97;5073809;28;20283;-75
2022/07/21 06:52:06;;;;;;;12.03;4.40;;;;;;;25.66;100.00;63549.75;5083135;28;20223;-76
2022/07/21 06:54:36;;;;;;;10.60;4.17;;;;;;;25.58;100.00;63541.03;5085982;28;20188;-77
2022/07/21 06:59:46;;;;;;;11.93;4.60;;;;;;;25.90;100.00;63575.81;5067514;28;20199;-75
2022/07/21 07:02:19;;;;;;;13.50;4.73;;;;;;;25.32;100.00;63518.00;5071885;28;20665;-76
2022/07/21 07:04:47;;;;;;;6.77;4.00;;;;;;;26.42;100.00;63628.66;5070966;28;20238;-76
2022/07/21 07:07:15;;;;;;;8.23;4.23;;;;;;;26.85;100.00;63678.03;5058163;28;20211;-77
2022/07/21 07:09:43;;;;;;;9.57;4.50;;;;;;;26.97;100.00;63693.16;5084235;28;20191;-77
2022/07/21 07:12:10;;;;;;;8.03;4.10;;;;;;;26.99;100.00;63687.50;5071191;28;20698;-77
2022/07/21 07:14:38;;;;;;;7.30;4.03;;;;;;;26.85;100.00;63683.28;5071143;28;20223;-76
2022/07/21 07:17:06;;;;;;;12.50;5.17;;;;;;;26.89;100.00;63687.06;5085688;28;20199;-75
2022/07/21 07:19:34;;;;;;;12.07;5.43;;;;;;;27.16;100.00;63711.78;5083069;28;20216;-76
2022/07/21 07:22:02;;;;;;;9.30;4.43;;;;;;;27.24;100.00;63717.88;5086862;28;20200;-76
2022/07/21 07:24:31;;;;;;;6.97;4.23;;;;;;;27.14;100.00;63712.22;5098055;28;20600;-75
2022/07/21 07:26:59;;;;;;;9.00;4.30;;;;;;;27.52;100.00;63750.97;5096310;28;20203;-78
2022/07/21 07:29:31;;;;;;;11.13;4.10;;;;;;;26.90;100.00;63680.88;5095057;28;20196;-75
2022/07/21 07:31:58;;;;;;;12.43;4.40;;;;;;;27.64;100.00;63765.53;5092871;28;20238;-77
2022/07/21 07:34:28;;;;;;;10.57;4.40;;;;;;;27.79;100.00;63776.63;5094873;28;20203;-76
2022/07/21 07:36:58;;;;;;;13.13;4.80;;;;;;;28.59;100.00;63865.84;5093742;28;20676;-76
2022/07/21 07:39:30;;;;;;;10.60;4.47;;;;;;;28.36;100.00;63841.31;5094675;28;20203;-76
2022/07/21 07:42:01;;;;;;;14.10;5.00;;;;;;;28.53;100.00;63859.31;5093945;28;20225;-76
2022/07/21 07:44:28;;;;;;;13.77;4.63;;;;;;;28.76;100.00;63884.91;5083163;28;20244;-76
2022/07/21 07:46:57;;;;;;;12.20;4.73;;;;;;;28.24;100.00;63838.75;5074588;28;20212;-76
2022/07/21 07:49:25;;;;;;;15.13;5.13;;;;;;;29.16;100.00;63927.97;5074766;28;20214;-76
2022/07/21 07:51:53;;;;;;;10.23;4.50;;;;;;;28.21;100.00;63825.00;5085089;28;20224;-77
2022/07/21 07:54:23;;;;;;;9.17;4.10;;;;;;;29.19;100.00;63931.25;5077629;28;20256;-76
2022/07/21 07:56:51;;;;;;;10.70;4.53;;;;;;;29.30;100.00;63947.94;5080840;28;20216;-76
2022/07/21 07:59:21;;;;;;;11.13;3.57;;;;;;;29.45;100.00;63956.94;5094462;28;20245;-76
2022/07/21 08:01:49;;;;;;;12.10;4.03;;;;;;;29.81;100.00;63995.66;5071937;28;20684;-75
2022/07/21 08:04:17;;;;;;;9.57;3.97;;;;;;;29.91;100.00;64009.19;5094162;28;20197;-74
2022/07/21 08:06:46;;;;;;;12.07;4.13;;;;;;;29.28;100.00;63940.50;5093652;28;20190;-77
2022/07/21 08:09:18;;;;;;;15.87;3.93;;;;;;;30.40;100.00;64062.66;5094050;28;20198;-76
2022/07/21 08:11:52;;;;;;;9.73;3.37;;;;;;;30.34;93.95;64055.56;5091502;28;20593;-77
2022/07/21 08:14:21;;;;;;;12.13;3.83;;;;;;;30.50;93.88;64073.56;5095066;28;20661;-75
2022/07/21 08:16:48;;;;;;;12.37;3.60;;;;;;;30.39;93.06;64058.94;5093767;28;20279;-77
2022/07/21 08:19:16;;;;;;;6.97;3.37;;;;;;;29.96;96.45;64014.66;5094342;28;20226;-75
2022/07/21 08:21:50;;;;;;;9.10;3.93;;;;;;;30.45;100.00;64073.38;5094031;28;20573;-77
2022/07/21 08:24:18;;;;;;;7.73;3.67;;;;;;;30.58;90.68;64084.94;5094231;27;20206;-77
2022/07/21 08:26:51;;;;;;;7.47;3.17;;;;;;;31.00;88.89;64129.69;5074286;28;20199;-77
2022/07/21 08:29:25;;;;;;;11.87;3.93;;;;;;;31.28;84.14;64162.88;5074855;28;20215;-76
2022/07/21 08:31:52;;;;;;;26.10;4.27;;;;;;;31.48;79.08;64182.09;5085057;28;20221;-77
2022/07/21 08:37:04;;;;;;;12.37;3.80;;;;;;;30.92;83.20;64118.31;5076140;28;20227;-78
2022/07/21 08:39:32;;;;;;;11.73;3.50;;;;;;;31.47;82.71;64178.91;5075340;28;20284;-77
2022/07/21 08:42:09;;;;;;;7.27;3.40;;;;;;;31.49;82.90;64180.56;5074800;28;20207;-76
2022/07/21 08:44:40;;;;;;;8.60;3.27;;;;;;;31.67;82.64;64200.75;5069319;28;20198;-74
2022/07/21 08:47:09;;;;;;;11.50;3.90;;;;;;;31.21;80.37;64155.25;5093343;28;20212;-76
2022/07/21 08:49:40;;;;;;;13.10;3.60;;;;;;;31.36;77.35;64166.34;5089328;28;20206;-77
2022/07/21 08:52:11;;;;;;;6.73;3.13;;;;;;;32.14;78.25;64251.00;5093214;28;20229;-75
2022/07/21 08:54:39;;;;;;;5.30;3.30;;;;;;;32.07;78.69;64243.91;5094252;28;20262;-75
2022/07/21 08:57:08;;;;;;;4.77;3.43;;;;;;;31.79;77.87;64213.31;5093410;28;20208;-77
2022/07/21 08:59:35;;;;;;;5.80;3.20;;;;;;;31.71;80.00;64201.94;5093634;28;20272;-76
2022/07/21 09:02:04;;;;;;;5.17;3.67;;;;;;;31.91;78.50;64226.41;5080117;28;20208;-77
2022/07/21 09:04:34;;;;;;;7.60;3.13;;;;;;;31.91;73.58;64229.06;5082287;28;20232;-76
2022/07/21 09:07:02;;;;;;;11.67;3.20;;;;;;;31.13;75.04;64146.50;5073693;28;20200;-76
2022/07/21 09:09:32;;;;;;;3.30;3.00;;;;;;;31.97;75.59;64235.63;5073126;28;20208;-77
2022/07/21 09:12:00;;;;;;;8.30;3.40;;;;;;;32.26;76.17;64259.38;5074875;28;20230;-76
2022/07/21 09:14:33;;;;;;;11.93;3.47;;;;;;;32.40;75.47;64279.41;5074246;28;20206;-75
2022/07/21 09:17:03;;;;;;;6.03;3.17;;;;;;;31.91;71.90;64231.69;5061696;28;20619;-75
2022/07/21 09:22:18;;;;;;;6.43;3.50;;;;;;;32.43;68.11;64285.88;5073232;28;20663;-75
2022/07/21 09:24:50;;;;;;;3.73;2.80;;;;;;;32.20;72.13;64263.38;5073729;28;20245;-76
2022/07/21 09:27:22;;;;;;;8.67;3.40;;;;;;;32.51;77.02;64290.91;5073732;28;20273;-77
2022/07/21 09:29:53;;;;;;;5.63;3.30;;;;;;;32.75;68.50;64317.13;5072722;28;20202;-76
2022/07/21 09:32:27;;;;;;;8.77;3.10;;;;;;;33.25;67.80;64372.34;5072686;28;20227;-76
2022/07/21 09:35:01;;;;;;;5.60;3.23;;;;;;;33.70;62.54;64421.03;5093013;28;20582;-75
2022/07/21 09:37:37;;;;;;;13.63;4.27;;;;;;;33.42;66.09;64389.84;5076498;28;20203;-76
2022/07/21 09:40:09;;;;;;;5.67;3.27;;;;;;;33.84;65.20;64433.16;5072847;28;20211;-76
2022/07/21 09:42:39;;;;;;;9.33;3.60;;;;;;;34.34;61.89;64489.97;5072405;28;20271;-76
2022/07/21 09:45:11;;;;;;;6.13;3.40;;;;;;;34.22;58.85;64476.84;5072531;28;20209;-78
2022/07/21 09:47:40;;;;;;;6.67;3.20;;;;;;;34.11;57.68;64467.97;5072696;28;20203;-76
2022/07/21 09:50:10;;;;;;;5.43;3.33;;;;;;;33.44;59.70;64397.31;5085351;28;20192;-77
2022/07/21 09:52:39;;;;;;;5.90;3.13;;;;;;;33.08;60.63;64350.59;5066297;28;20218;-75
2022/07/21 09:55:09;;;;;;;3.87;3.23;;;;;;;32.83;61.80;64325.88;5090505;28;20202;-77
2022/07/21 09:57:37;;;;;;;3.20;2.93;;;;;;;33.01;61.62;64345.56;5083629;28;20566;-76
2022/07/21 10:00:09;;;;;;;7.40;3.40;;;;;;;33.05;59.75;64349.94;5085223;28;20615;-75
2022/07/21 10:02:37;;;;;;;3.47;2.90;;;;;;;32.77;61.36;64319.88;5080687;28;20672;-76
2022/07/21 10:05:07;;;;;;;3.97;3.50;;;;;;;33.40;62.36;64387.66;5091772;28;20288;-76
2022/07/21 10:07:38;;;;;;;3.97;3.20;;;;;;;33.79;59.39;64430.88;5082301;28;20198;-77
2022/07/21 10:10:08;;;;;;;3.63;3.13;;;;;;;33.86;58.01;64438.53;5088838;28;20196;-76
2022/07/21 10:12:35;;;;;;;6.07;3.10;;;;;;;34.10;54.72;64463.69;5080956;28;20701;-77
2022/07/21 10:15:03;;;;;;;5.57;2.90;;;;;;;34.36;54.18;64489.50;5071687;28;20575;-75
2022/07/21 10:17:33;;;;;;;3.30;2.70;;;;;;;34.39;53.90;64495.97;5071597;28;20682;-76
2022/07/21 10:20:09;;;;;;;4.37;2.87;;;;;;;34.12;55.13;64468.53;5071883;28;20224;-76
2022/07/21 10:22:57;;;;;;;5.87;3.10;;;;;;;33.85;53.64;64442.16;5072325;28;20207;-76
2022/07/21 10:25:25;;;;;;;5.20;2.87;;;;;;;33.87;53.66;64439.06;5070439;28;20295;-78
2022/07/21 10:28:17;;;;;;;5.70;2.90;;;;;;;33.34;54.62;64381.09;5071599;28;20205;-77
2022/07/21 10:30:46;;;;;;;5.17;3.03;;;;;;;33.65;56.64;64415.00;5064155;28;20610;-75
2022/07/21 10:33:26;;;;;;;6.27;2.97;;;;;;;32.61;52.99;64307.09;5071420;28;20232;-76
2022/07/21 10:35:57;;;;;;;4.57;2.80;;;;;;;33.39;56.62;64386.56;5071858;28;20216;-75
2022/07/21 10:38:31;;;;;;;3.40;3.10;;;;;;;33.07;53.82;64354.75;5071927;28;20207;-75
2022/07/21 10:40:59;;;;;;;4.50;3.43;;;;;;;34.08;53.95;64461.50;5072061;28;20348;-76
2022/07/21 10:43:48;;;;;;;5.30;3.30;;;;;;;33.54;52.41;64402.97;5072196;28;20210;-76
2022/07/21 10:46:38;;;;;;;3.50;2.90;;;;;;;34.04;53.31;64460.88;5072835;28;20210;-76
2022/07/21 10:49:43;;;;;;;4.50;2.97;;;;;;;34.53;52.41;64510.78;5088616;28;20209;-76
2022/07/21 10:52:45;;;;;;;6.13;2.90;;;;;;;35.02;48.21;64567.06;5063372;28;20248;-76
2022/07/21 10:55:17;;;;;;;4.60;3.27;;;;;;;35.36;46.20;64604.31;5060686;28;20346;-76
2022/07/21 10:57:47;;;;;;;3.20;2.90;;;;;;;35.01;46.62;64557.50;5071484;28;20197;-76
2022/07/21 11:00:23;;;;;;;3.13;2.70;;;;;;;35.02;47.57;64564.44;5071495;28;20194;-76
2022/07/21 11:02:54;;;;;;;4.83;3.03;;;;;;;34.20;49.18;64475.19;5082198;28;20245;-75
2022/07/21 11:06:12;;;;;;;4.13;3.00;;;;;;;34.49;49.08;64506.94;5087202;28;20289;-75
2022/07/21 11:08:41;;;;;;;7.93;3.60;;;;;;;34.38;50.05;64496.97;5078994;28;20289;-76
2022/07/21 11:11:11;;;;;;;5.13;3.30;;;;;;;34.60;48.86;64518.97;5084654;28;20201;-76
2022/07/21 11:14:01;;;;;;;6.40;3.50;;;;;;;34.75;47.77;64540.69;5085417;28;20232;-76
2022/07/21 11:17:03;;;;;;;3.70;3.20;;;;;;;34.93;47.85;64554.56;5091078;28;20649;-75
2022/07/21 11:19:33;;;;;;;6.83;2.80;;;;;;;34.18;48.49;64473.00;5068126;28;20228;-76
2022/07/21 11:22:07;;;;;;;3.93;2.97;;;;;;;34.50;50.46;64504.84;5088269;28;20566;-75
2022/07/21 11:24:36;;;;;;;4.50;2.70;;;;;;;33.37;51.87;64382.28;5080652;28;20423;-75
2022/07/21 11:27:05;;;;;;;8.27;3.43;;;;;;;34.66;53.60;64530.28;5089593;28;20201;-77
2022/07/21 11:29:33;;;;;;;9.20;3.70;;;;;;;35.03;50.55;64562.88;5089260;28;20291;-76
2022/07/21 11:32:02;;;;;;;5.33;3.20;;;;;;;35.10;50.97;64575.84;5089461;28;20228;-76
2022/07/21 11:34:43;;;;;;;6.23;3.07;;;;;;;34.92;48.68;64552.91;5090252;28;20231;-75
2022/07/21 11:37:14;;;;;;;8.00;3.30;;;;;;;34.22;49.85;64479.47;5089933;28;20213;-76
2022/07/21 11:39:42;;;;;;;3.13;2.83;;;;;;;34.93;54.37;64551.91;5088968;28;20265;-76
2022/07/21 11:42:12;;;;;;;5.30;2.97;;;;;;;35.59;50.31;64626.88;5089847;28;20213;-75
2022/07/21 11:44:40;;;;;;;4.40;2.90;;;;;;;35.95;48.23;64670.53;5089004;28;20314;-76
2022/07/21 11:47:11;;;;;;;3.73;2.83;;;;;;;35.99;46.48;64672.25;5089521;28;20208;-77
2022/07/21 11:49:39;;;;;;;5.17;3.10;;;;;;;36.11;46.85;64682.75;5086823;28;20196;-76
2022/07/21 11:52:08;;;;;;;12.40;3.67;;;;;;;36.46;46.80;64723.78;5089157;28;20224;-75